Time;durP1;ratioP1;P1;durP2;ratioP2;P2;SDS_P1;SDS_P2;PMS_P1;PMS_P2;Temp;Humidity;BMP_temperature;BMP_pressure;BME280_temperature;BME280_humidity;BME280_pressure;Samples;Min_cycle;Max_cycle;Signal;HPM_P1;HPM_P2
2023/01/15 00:00:12;;;;;;;;;;;;;;;2.44;71.11;92347.00;2071950;69;20530;-75
2023/01/15 00:02:38;;;;;;;;;;;;;;;2.68;70.40;92346.22;2068516;69;20085;-75
2023/01/15 00:05:04;;;;;;;;;;;;;;;2.50;70.24;92358.59;2071831;69;20384;-73
2023/01/15 00:07:30;;;;;;;;;;;;;;;2.62;69.84;92347.78;2071288;69;20055;-73
2023/01/15 00:09:55;;;;;;;;;;;;;;;2.72;70.08;92337.50;2072369;69;20087;-75
2023/01/15 00:12:21;;;;;;;;;;;;;;;2.52;71.17;92339.31;2072402;69;20095;-75
2023/01/15 00:14:46;;;;;;;;;;;;;;;2.72;70.61;92334.72;2071710;69;20052;-74
2023/01/15 00:17:11;;;;;;;;;;;;;;;2.77;70.50;92330.97;2068274;69;20072;-75
2023/01/15 00:19:37;;;;;;;;;;;;;;;2.85;70.22;92325.34;2072022;69;20048;-73
2023/01/15 00:22:03;;;;;;;;;;;;;;;2.63;71.08;92329.78;2068412;69;20487;-74
2023/01/15 00:29:56;;;;;;;;;;;;;;;2.85;70.87;92317.00;2070538;69;20070;-74
2023/01/15 00:32:22;;;;;;;;;;;;;;;2.92;70.38;92324.53;2067974;69;20575;-75
2023/01/15 00:34:47;;;;;;;;;;;;;;;2.96;69.95;92314.47;2068634;69;20045;-75
2023/01/15 00:37:13;;;;;;;;;;;;;;;3.03;69.87;92307.38;2067917;69;20049;-75
2023/01/15 00:39:39;;;;;;;;;;;;;;;3.09;69.42;92310.66;2068845;69;20110;-76
2023/01/15 00:42:04;;;;;;;;;;;;;;;2.79;69.95;92315.19;2068859;69;20041;-74
2023/01/15 00:44:32;;;;;;;;;;;;;;;3.00;69.84;92314.81;2068191;69;20041;-74
2023/01/15 00:46:58;;;;;;;;;;;;;;;3.05;69.52;92313.81;2068673;69;20610;-74
2023/01/15 00:49:23;;;;;;;;;;;;;;;3.10;69.40;92309.34;2066902;69;20152;-75
2023/01/15 00:51:49;;;;;;;;;;;;;;;3.15;69.26;92313.91;2066953;69;20082;-74
2023/01/15 00:54:15;;;;;;;;;;;;;;;3.02;70.27;92311.44;2068597;69;20051;-73
2023/01/15 00:56:41;;;;;;;;;;;;;;;3.09;70.04;92299.50;2067188;69;20137;-76
2023/01/15 00:59:08;;;;;;;;;;;;;;;2.87;70.85;92298.44;2070879;69;20438;-75
2023/01/15 01:01:33;;;;;;;;;;;;;;;2.87;71.12;92298.44;2070907;69;20052;-75
2023/01/15 01:03:59;;;;;;;;;;;;;;;3.03;70.58;92290.69;2070827;69;20049;-74
2023/01/15 01:06:25;;;;;;;;;;;;;;;3.01;70.85;92288.47;2067429;69;20266;-75
2023/01/15 01:08:51;;;;;;;;;;;;;;;3.03;70.53;92285.13;2067795;69;20088;-74
2023/01/15 01:11:17;;;;;;;;;;;;;;;3.03;70.57;92271.22;2068023;69;20146;-73
2023/01/15 01:13:44;;;;;;;;;;;;;;;3.11;70.46;92271.84;2068062;69;20405;-75
2023/01/15 01:16:24;;;;;;;;;;;;;;;3.10;70.90;92264.81;2068371;69;20073;-74
2023/01/15 01:18:52;;;;;;;;;;;;;;;3.07;70.59;92260.44;2068348;69;20037;-74
2023/01/15 01:21:19;;;;;;;;;;;;;;;3.16;70.34;92257.00;2067918;69;20048;-74
2023/01/15 01:23:46;;;;;;;;;;;;;;;3.15;70.70;92258.28;2068026;69;20446;-72
2023/01/15 01:26:12;;;;;;;;;;;;;;;3.16;70.88;92254.22;2068526;69;20045;-73
2023/01/15 01:28:38;;;;;;;;;;;;;;;2.99;71.56;92243.81;2068043;69;20041;-71
2023/01/15 01:31:06;;;;;;;;;;;;;;;3.00;71.37;92252.91;2068098;69;20059;-73
2023/01/15 01:33:34;;;;;;;;;;;;;;;3.13;71.03;92240.72;2068641;69;20149;-73
2023/01/15 01:35:59;;;;;;;;;;;;;;;3.05;71.58;92232.44;2068460;69;20057;-73
2023/01/15 01:38:25;;;;;;;;;;;;;;;3.00;71.26;92236.94;2067818;69;20463;-74
2023/01/15 01:40:51;;;;;;;;;;;;;;;3.15;70.73;92227.69;2067973;69;20138;-75
2023/01/15 01:43:19;;;;;;;;;;;;;;;3.15;70.77;92232.50;2068064;69;20556;-76
2023/01/15 01:45:44;;;;;;;;;;;;;;;3.01;71.05;92226.56;2067795;69;20481;-72
2023/01/15 01:48:10;;;;;;;;;;;;;;;2.64;73.24;92223.59;2068433;69;20070;-73
2023/01/15 01:50:36;;;;;;;;;;;;;;;3.01;71.89;92215.44;2068456;69;20052;-73
2023/01/15 01:53:07;;;;;;;;;;;;;;;3.04;71.63;92209.47;2067665;69;20087;-73
2023/01/15 01:55:34;;;;;;;;;;;;;;;3.03;71.52;92204.47;2067973;69;20069;-73
2023/01/15 01:58:02;;;;;;;;;;;;;;;2.77;72.92;92200.31;2067952;69;20061;-72
2023/01/15 02:00:28;;;;;;;;;;;;;;;2.69;73.02;92200.38;2065399;69;20169;-73
2023/01/15 02:02:54;;;;;;;;;;;;;;;2.78;72.61;92187.88;2068430;69;20048;-73
2023/01/15 02:05:39;;;;;;;;;;;;;;;2.86;71.79;92182.97;2068490;69;20048;-73
2023/01/15 02:08:06;;;;;;;;;;;;;;;2.95;71.50;92184.38;2068050;69;20081;-72
2023/01/15 02:10:32;;;;;;;;;;;;;;;3.02;71.20;92169.63;2067812;69;20080;-75
2023/01/15 02:12:58;;;;;;;;;;;;;;;3.03;71.23;92173.91;2067964;69;20416;-76
2023/01/15 02:15:43;;;;;;;;;;;;;;;3.05;70.90;92163.66;2068573;69;20482;-74
2023/01/15 02:18:09;;;;;;;;;;;;;;;2.91;71.59;92159.75;2068452;69;20051;-75
2023/01/15 02:20:43;;;;;;;;;;;;;;;2.94;71.75;92163.44;2067703;69;20045;-75
2023/01/15 02:23:12;;;;;;;;;;;;;;;2.99;71.21;92156.88;2067571;69;20145;-76
2023/01/15 02:25:56;;;;;;;;;;;;;;;2.90;71.53;92160.34;2068429;69;20041;-76
2023/01/15 02:28:49;;;;;;;;;;;;;;;3.03;71.04;92149.59;2067738;69;20498;-74
2023/01/15 02:31:31;;;;;;;;;;;;;;;3.00;71.52;92152.78;2065183;69;20049;-74
2023/01/15 02:34:06;;;;;;;;;;;;;;;2.92;71.80;92144.53;2067698;69;20049;-76
2023/01/15 02:36:34;;;;;;;;;;;;;;;2.97;71.09;92142.81;2067563;69;20442;-74
2023/01/15 02:39:07;;;;;;;;;;;;;;;2.95;70.97;92132.28;2064232;69;20049;-74
2023/01/15 02:41:36;;;;;;;;;;;;;;;3.02;69.88;92133.47;2067278;69;20621;-76
2023/01/15 02:44:04;;;;;;;;;;;;;;;2.90;70.62;92141.59;2065189;69;20140;-74
2023/01/15 02:46:31;;;;;;;;;;;;;;;2.93;71.02;92132.13;2067784;69;20481;-73
2023/01/15 02:49:02;;;;;;;;;;;;;;;2.96;70.79;92130.94;2067691;69;20055;-77
2023/01/15 02:51:35;;;;;;;;;;;;;;;2.99;70.41;92117.97;2067673;69;20135;-73
2023/01/15 02:54:03;;;;;;;;;;;;;;;3.02;70.98;92119.56;2067518;69;20084;-72
2023/01/15 02:56:34;;;;;;;;;;;;;;;3.10;70.31;92120.22;2067703;69;20134;-73
2023/01/15 02:59:05;;;;;;;;;;;;;;;3.07;70.27;92110.25;2067476;69;20165;-72
2023/01/15 03:01:35;;;;;;;;;;;;;;;3.12;70.56;92103.69;2067750;69;20048;-73
2023/01/15 03:04:20;;;;;;;;;;;;;;;2.64;71.24;92093.00;2067555;69;20191;-74
2023/01/15 03:06:51;;;;;;;;;;;;;;;2.52;72.66;92078.88;2068161;69;20091;-72
2023/01/15 03:09:17;;;;;;;;;;;;;;;2.94;71.28;92097.44;2064880;69;20152;-74
2023/01/15 03:11:46;;;;;;;;;;;;;;;3.06;70.75;92089.28;2064469;69;20496;-73
2023/01/15 03:14:18;;;;;;;;;;;;;;;3.01;70.78;92087.50;2067791;69;20048;-75
2023/01/15 03:16:51;;;;;;;;;;;;;;;2.99;70.79;92073.47;2068263;69;20567;-75
2023/01/15 03:19:19;;;;;;;;;;;;;;;2.96;70.88;92089.25;2067570;69;20080;-73
2023/01/15 03:21:50;;;;;;;;;;;;;;;2.97;70.83;92074.03;2067363;69;20053;-75
2023/01/15 03:24:28;;;;;;;;;;;;;;;2.96;71.06;92063.50;2065926;69;20068;-71
2023/01/15 03:26:55;;;;;;;;;;;;;;;3.01;70.75;92062.50;2068049;69;20056;-72
2023/01/15 03:29:27;;;;;;;;;;;;;;;2.93;71.05;92048.72;2067751;69;20495;-76
2023/01/15 03:31:53;;;;;;;;;;;;;;;2.95;71.31;92048.13;2067533;69;20177;-73
2023/01/15 03:34:19;;;;;;;;;;;;;;;2.93;70.98;92034.81;2067932;69;20064;-73
2023/01/15 03:36:46;;;;;;;;;;;;;;;2.89;71.36;92040.06;2068193;69;20041;-75
2023/01/15 03:39:12;;;;;;;;;;;;;;;3.00;70.61;92033.22;2067959;69;20076;-76
2023/01/15 03:42:09;;;;;;;;;;;;;;;2.98;70.48;92033.81;2067215;69;20079;-73
2023/01/15 03:44:35;;;;;;;;;;;;;;;2.68;71.50;92039.78;2067733;69;20473;-75
2023/01/15 03:47:11;;;;;;;;;;;;;;;2.83;71.43;92042.34;2067528;69;20060;-73
2023/01/15 03:49:56;;;;;;;;;;;;;;;2.84;71.21;92040.28;2064825;69;20061;-73
2023/01/15 03:53:02;;;;;;;;;;;;;;;2.82;71.39;92040.16;2065437;69;20088;-74
2023/01/15 03:55:34;;;;;;;;;;;;;;;2.85;71.25;92033.44;2068170;69;20143;-75
2023/01/15 03:58:07;;;;;;;;;;;;;;;2.81;71.12;92039.41;2067366;69;20187;-73
2023/01/15 04:00:40;;;;;;;;;;;;;;;2.90;70.90;92035.22;2067438;69;20181;-72
2023/01/15 04:03:08;;;;;;;;;;;;;;;2.88;70.87;92015.59;2067457;69;20106;-72
2023/01/15 04:06:04;;;;;;;;;;;;;;;2.46;72.50;92011.69;2067752;69;20052;-76
2023/01/15 04:08:34;;;;;;;;;;;;;;;2.51;73.08;92007.19;2066858;69;20048;-73
2023/01/15 04:11:00;;;;;;;;;;;;;;;2.43;73.58;92004.53;2067689;69;20484;-75
2023/01/15 04:13:30;;;;;;;;;;;;;;;2.76;71.94;91991.13;2067817;69;20049;-73
2023/01/15 04:16:29;;;;;;;;;;;;;;;2.84;71.26;91981.91;2067720;69;20485;-76
2023/01/15 04:18:56;;;;;;;;;;;;;;;2.88;71.84;91982.22;2068495;69;20140;-72
2023/01/15 04:21:22;;;;;;;;;;;;;;;2.75;72.08;91986.13;2068265;69;20596;-74
2023/01/15 04:23:48;;;;;;;;;;;;;;;2.71;72.11;91975.44;2068571;69;20140;-73
2023/01/15 04:26:14;;;;;;;;;;;;;;;2.69;72.66;91983.59;2068803;69;20044;-74
2023/01/15 04:28:39;;;;;;;;;;;;;;;2.79;72.03;91978.09;2068753;69;20041;-76
2023/01/15 04:31:05;;;;;;;;;;;;;;;2.85;71.29;91981.34;2067012;69;20122;-74
2023/01/15 04:33:30;;;;;;;;;;;;;;;2.87;71.07;91980.75;2068296;69;20051;-74
2023/01/15 04:36:00;;;;;;;;;;;;;;;2.06;73.93;91975.91;2068760;69;20124;-75
2023/01/15 04:38:25;;;;;;;;;;;;;;;2.59;72.37;91982.09;2068557;69;20087;-76
2023/01/15 04:46:22;;;;;;;;;;;;;;;2.62;71.68;91967.78;2068769;69;20500;-75
2023/01/15 04:48:47;;;;;;;;;;;;;;;2.68;71.47;91976.59;2068637;69;20048;-75
2023/01/15 04:51:13;;;;;;;;;;;;;;;2.73;71.50;91972.06;2068293;69;20068;-76
2023/01/15 04:53:38;;;;;;;;;;;;;;;2.18;72.65;91970.59;2068500;69;20045;-74
2023/01/15 04:56:04;;;;;;;;;;;;;;;2.48;72.81;91959.09;2068700;69;20080;-72
2023/01/15 04:58:30;;;;;;;;;;;;;;;2.59;72.35;91951.53;2067346;69;20136;-75
2023/01/15 05:00:56;;;;;;;;;;;;;;;2.61;71.59;91937.78;2064864;69;20203;-74
2023/01/15 05:03:21;;;;;;;;;;;;;;;2.73;71.49;91942.22;2065417;69;20045;-74
2023/01/15 05:05:46;;;;;;;;;;;;;;;2.74;71.27;91946.47;2065437;69;20432;-75
2023/01/15 05:08:12;;;;;;;;;;;;;;;2.57;71.67;91943.78;2067095;69;20069;-76
2023/01/15 05:10:37;;;;;;;;;;;;;;;2.56;72.13;91947.84;2068652;69;20049;-77
2023/01/15 05:13:03;;;;;;;;;;;;;;;2.63;72.20;91930.34;2068771;69;20056;-77
2023/01/15 05:15:28;;;;;;;;;;;;;;;2.64;71.62;91929.03;2068659;69;20129;-76
2023/01/15 05:17:55;;;;;;;;;;;;;;;2.75;71.40;91934.06;2068541;69;20052;-76
2023/01/15 05:20:20;;;;;;;;;;;;;;;2.63;71.29;91935.91;2068655;69;20084;-76
2023/01/15 05:22:45;;;;;;;;;;;;;;;2.68;70.92;91936.94;2068518;69;20492;-75
2023/01/15 05:25:11;;;;;;;;;;;;;;;2.09;73.82;91943.47;2068045;69;20041;-74
2023/01/15 05:27:36;;;;;;;;;;;;;;;2.43;72.68;91940.63;2068268;69;20495;-73
2023/01/15 05:30:02;;;;;;;;;;;;;;;2.54;72.46;91933.81;2068603;69;20053;-76
2023/01/15 05:32:29;;;;;;;;;;;;;;;2.55;71.84;91941.56;2072174;69;20121;-74
2023/01/15 05:34:54;;;;;;;;;;;;;;;2.45;71.91;91929.66;2071962;69;20109;-75
2023/01/15 05:37:20;;;;;;;;;;;;;;;2.47;72.17;91918.69;2068513;69;20415;-74
2023/01/15 05:39:45;;;;;;;;;;;;;;;2.55;71.81;91918.59;2071910;69;20037;-76
2023/01/15 05:42:11;;;;;;;;;;;;;;;2.59;71.97;91923.75;2072100;69;20088;-75
2023/01/15 05:44:36;;;;;;;;;;;;;;;2.48;72.53;91925.00;2068977;69;20051;-75
2023/01/15 05:47:04;;;;;;;;;;;;;;;2.53;71.91;91927.53;2068603;69;20040;-75
2023/01/15 05:49:30;;;;;;;;;;;;;;;2.64;72.03;91931.06;2071985;69;20053;-75
2023/01/15 05:51:56;;;;;;;;;;;;;;;2.47;72.35;91926.31;2071988;69;20472;-73
2023/01/15 05:54:22;;;;;;;;;;;;;;;2.50;71.99;91937.00;2071706;69;20141;-74
2023/01/15 05:56:48;;;;;;;;;;;;;;;2.55;72.08;91933.22;2071984;69;20136;-74
2023/01/15 05:59:18;;;;;;;;;;;;;;;2.58;71.85;91931.34;2071857;69;20072;-74
2023/01/15 06:01:44;;;;;;;;;;;;;;;2.51;71.52;91930.13;2070786;69;20045;-72
2023/01/15 06:04:13;;;;;;;;;;;;;;;2.37;72.74;91926.25;2068552;69;20117;-74
2023/01/15 06:06:38;;;;;;;;;;;;;;;2.45;72.32;91909.50;2071973;69;20044;-73
2023/01/15 06:09:04;;;;;;;;;;;;;;;2.33;72.80;91917.59;2071755;69;20075;-74
2023/01/15 06:11:29;;;;;;;;;;;;;;;2.57;72.24;91920.78;2071860;69;20059;-73
2023/01/15 06:13:55;;;;;;;;;;;;;;;2.52;72.20;91920.50;2071892;69;20057;-75
2023/01/15 06:16:21;;;;;;;;;;;;;;;2.62;71.38;91923.31;2072318;69;20044;-73
2023/01/15 06:18:47;;;;;;;;;;;;;;;2.41;71.58;91917.50;2072194;69;20371;-74
2023/01/15 06:21:13;;;;;;;;;;;;;;;2.52;71.84;91920.50;2071824;69;20119;-75
2023/01/15 06:23:39;;;;;;;;;;;;;;;2.44;72.07;91914.31;2071688;69;20045;-74
2023/01/15 06:26:06;;;;;;;;;;;;;;;2.66;71.82;91918.09;2071916;69;20044;-73
2023/01/15 06:28:32;;;;;;;;;;;;;;;2.73;70.87;91919.25;2071641;69;20356;-75
2023/01/15 06:30:57;;;;;;;;;;;;;;;2.71;70.26;91922.63;2071767;69;20059;-73
2023/01/15 06:33:23;;;;;;;;;;;;;;;2.60;70.82;91925.19;2071980;69;20108;-73
2023/01/15 06:35:49;;;;;;;;;;;;;;;2.50;71.65;91930.72;2071674;69;20044;-72
2023/01/15 06:38:15;;;;;;;;;;;;;;;2.25;72.59;91947.56;2071729;69;20044;-73
2023/01/15 06:40:40;;;;;;;;;;;;;;;2.48;71.91;91944.47;2071835;69;20080;-73
2023/01/15 06:48:35;;;;;;;;;;;;;;;2.57;71.54;91916.00;2069243;69;20069;-73
2023/01/15 06:51:01;;;;;;;;;;;;;;;2.55;71.68;91915.81;2071778;69;20459;-73
2023/01/15 06:53:27;;;;;;;;;;;;;;;2.73;70.81;91917.22;2068473;69;20140;-73
2023/01/15 06:55:52;;;;;;;;;;;;;;;2.80;69.73;91916.38;2071883;69;20100;-73
2023/01/15 06:58:20;;;;;;;;;;;;;;;2.75;69.97;91925.00;2071885;69;20487;-73
2023/01/15 07:00:52;;;;;;;;;;;;;;;2.58;70.95;91934.13;2068528;69;20044;-76
2023/01/15 07:03:18;;;;;;;;;;;;;;;2.76;70.67;91957.03;2071674;69;20090;-74
2023/01/15 07:05:43;;;;;;;;;;;;;;;2.83;70.39;91944.31;2071667;69;20044;-75
2023/01/15 07:08:09;;;;;;;;;;;;;;;2.49;71.32;91943.88;2071664;69;20101;-73
2023/01/15 07:10:35;;;;;;;;;;;;;;;2.83;70.34;91952.66;2073044;69;20102;-76
2023/01/15 07:13:01;;;;;;;;;;;;;;;2.94;69.44;91955.63;2072108;69;20090;-73
2023/01/15 07:15:26;;;;;;;;;;;;;;;2.47;71.45;91952.03;2071745;69;20123;-74
2023/01/15 07:17:55;;;;;;;;;;;;;;;2.77;70.73;91948.09;2071780;69;20407;-74
2023/01/15 07:20:21;;;;;;;;;;;;;;;2.74;71.20;91942.97;2071731;69;20114;-72
2023/01/15 07:22:50;;;;;;;;;;;;;;;2.91;70.32;91931.03;2071747;69;20052;-73
2023/01/15 07:25:15;;;;;;;;;;;;;;;2.98;69.86;91930.19;2071615;69;20136;-73
2023/01/15 07:27:47;;;;;;;;;;;;;;;3.06;69.83;91925.97;2071535;69;20132;-73
2023/01/15 07:30:13;;;;;;;;;;;;;;;3.16;69.72;91928.03;2071537;69;20471;-72
2023/01/15 07:32:39;;;;;;;;;;;;;;;3.19;69.51;91921.31;2069986;69;20165;-75
2023/01/15 07:35:05;;;;;;;;;;;;;;;3.03;69.68;91920.84;2068298;69;20048;-73
2023/01/15 07:37:30;;;;;;;;;;;;;;;3.08;69.63;91914.28;2071242;69;20055;-72
2023/01/15 07:39:56;;;;;;;;;;;;;;;3.16;68.21;91916.91;2071617;69;20406;-72
2023/01/15 07:50:35;;;;;;;;;;;;;;;3.67;65.36;91926.97;2071435;69;20041;-72
2023/01/15 07:53:00;;;;;;;;;;;;;;;3.58;64.91;91927.69;2072273;69;20083;-74
2023/01/15 07:55:26;;;;;;;;;;;;;;;3.76;62.32;91912.31;2068638;69;20080;-72
2023/01/15 07:57:52;;;;;;;;;;;;;;;3.83;62.34;91903.06;2072256;69;20052;-71
2023/01/15 08:00:19;;;;;;;;;;;;;;;3.88;61.77;91895.00;2072092;69;20084;-74
2023/01/15 08:02:48;;;;;;;;;;;;;;;3.97;62.04;91883.84;2070102;69;20041;-73
2023/01/15 08:05:14;;;;;;;;;;;;;;;4.08;63.35;91894.41;2068793;69;20069;-73
2023/01/15 08:07:40;;;;;;;;;;;;;;;4.14;60.85;91885.75;2071283;69;20175;-74
2023/01/15 08:10:07;;;;;;;;;;;;;;;4.26;59.92;91891.44;2071981;69;20571;-74
2023/01/15 08:15:17;;;;;;;;;;;;;;;4.35;61.12;91871.19;2072190;69;20476;-74
2023/01/15 08:17:46;;;;;;;;;;;;;;;4.47;61.40;91862.94;2072083;69;20056;-74
2023/01/15 08:20:18;;;;;;;;;;;;;;;4.58;62.35;91862.31;2072081;69;20053;-73
2023/01/15 08:22:44;;;;;;;;;;;;;;;4.63;62.72;91866.09;2072063;69;20139;-73
2023/01/15 08:25:11;;;;;;;;;;;;;;;4.62;63.71;91856.28;2068759;69;20056;-73
2023/01/15 08:27:40;;;;;;;;;;;;;;;4.80;61.48;91860.31;2072217;69;20049;-76
2023/01/15 08:30:08;;;;;;;;;;;;;;;4.65;61.84;91853.03;2072334;69;20139;-74
2023/01/15 08:32:34;;;;;;;;;;;;;;;4.67;63.03;91846.88;2072218;69;20064;-71
2023/01/15 08:35:00;;;;;;;;;;;;;;;4.78;62.78;91841.41;2072092;69;20404;-73
2023/01/15 08:37:26;;;;;;;;;;;;;;;4.81;63.54;91834.63;2071987;69;20515;-73
2023/01/15 08:39:52;;;;;;;;;;;;;;;4.84;63.67;91839.00;2071843;69;20653;-72
2023/01/15 08:42:19;;;;;;;;;;;;;;;4.60;63.37;91854.09;2071778;69;20044;-74
2023/01/15 08:44:44;;;;;;;;;;;;;;;4.83;63.58;91850.75;2070016;69;20131;-73
2023/01/15 08:47:10;;;;;;;;;;;;;;;4.84;62.83;91855.75;2071330;69;20071;-73
2023/01/15 08:49:35;;;;;;;;;;;;;;;4.97;62.42;91851.72;2068518;69;20047;-74
2023/01/15 08:52:01;;;;;;;;;;;;;;;4.81;62.16;91839.47;2071460;69;20045;-75
2023/01/15 08:54:26;;;;;;;;;;;;;;;5.08;62.22;91841.97;2072144;69;20135;-73
2023/01/15 08:56:52;;;;;;;;;;;;;;;5.21;62.67;91852.59;2071357;69;20052;-74
2023/01/15 08:59:18;;;;;;;;;;;;;;;5.03;63.05;91843.03;2068645;69;20053;-73
2023/01/15 09:01:44;;;;;;;;;;;;;;;5.17;63.51;91848.81;2070974;69;20138;-76
2023/01/15 09:04:16;;;;;;;;;;;;;;;5.28;64.07;91848.91;2068604;69;20045;-74
2023/01/15 09:06:42;;;;;;;;;;;;;;;5.49;63.33;91847.44;2059891;69;20053;-74
2023/01/15 09:09:07;;;;;;;;;;;;;;;5.57;62.90;91853.53;2072022;69;20045;-74
2023/01/15 09:11:33;;;;;;;;;;;;;;;5.61;62.24;91848.94;2072102;69;20095;-73
2023/01/15 09:13:59;;;;;;;;;;;;;;;5.77;62.95;91838.13;2071928;69;20041;-75
2023/01/15 09:16:26;;;;;;;;;;;;;;;5.78;63.35;91836.03;2068706;69;20044;-75
2023/01/15 09:18:52;;;;;;;;;;;;;;;5.77;62.97;91837.34;2070693;69;20051;-76
2023/01/15 09:21:22;;;;;;;;;;;;;;;5.94;62.73;91848.28;2071282;69;20048;-74
2023/01/15 09:23:51;;;;;;;;;;;;;;;5.98;62.93;91856.19;2071644;69;20048;-76
2023/01/15 09:26:26;;;;;;;;;;;;;;;5.79;61.18;91871.75;2072098;69;20164;-74
2023/01/15 09:28:52;;;;;;;;;;;;;;;5.91;61.38;91871.81;2071971;69;20048;-73
2023/01/15 09:31:17;;;;;;;;;;;;;;;5.86;59.70;91870.81;2071961;69;20156;-74
2023/01/15 09:33:43;;;;;;;;;;;;;;;5.92;59.93;91855.81;2071863;69;20099;-75
2023/01/15 09:36:21;;;;;;;;;;;;;;;5.99;59.62;91863.22;2068596;69;20480;-73
2023/01/15 09:38:48;;;;;;;;;;;;;;;6.11;60.23;91850.03;2067443;69;20429;-74
2023/01/15 09:44:07;;;;;;;;;;;;;;;6.48;59.02;91838.34;2072054;69;20068;-73
2023/01/15 09:46:56;;;;;;;;;;;;;;;6.54;60.21;91838.69;2071894;69;20064;-76
2023/01/15 09:49:33;;;;;;;;;;;;;;;6.61;59.17;91826.56;2069656;69;20136;-74
2023/01/15 09:52:02;;;;;;;;;;;;;;;6.80;59.83;91834.00;2071916;69;20119;-73
2023/01/15 09:54:39;;;;;;;;;;;;;;;6.53;59.66;91826.06;2069592;69;20051;-75
2023/01/15 09:57:10;;;;;;;;;;;;;;;6.76;57.48;91814.16;2068897;69;20107;-74
2023/01/15 09:59:38;;;;;;;;;;;;;;;7.05;57.38;91806.09;2072022;69;20047;-77
2023/01/15 10:02:12;;;;;;;;;;;;;;;7.02;58.00;91817.81;2071956;69;20087;-72
2023/01/15 10:04:46;;;;;;;;;;;;;;;7.07;58.58;91813.91;2071809;69;20049;-71
2023/01/15 10:07:17;;;;;;;;;;;;;;;7.27;56.75;91814.34;2071837;69;20139;-74
2023/01/15 10:09:44;;;;;;;;;;;;;;;7.34;56.98;91808.50;2071196;69;20071;-73
2023/01/15 10:12:34;;;;;;;;;;;;;;;7.52;57.31;91806.03;2069635;69;20139;-75
2023/01/15 10:15:14;;;;;;;;;;;;;;;7.88;50.99;91810.19;2071189;69;20404;-72
2023/01/15 10:17:41;;;;;;;;;;;;;;;8.37;52.99;91798.13;2071719;69;20132;-74
2023/01/15 10:20:35;;;;;;;;;;;;;;;8.13;52.26;91795.44;2071832;69;20040;-74
2023/01/15 10:23:00;;;;;;;;;;;;;;;8.27;55.12;91786.34;2071622;69;20036;-72
2023/01/15 10:25:30;;;;;;;;;;;;;;;7.95;54.30;91774.81;2072087;69;20041;-71
2023/01/15 10:27:57;;;;;;;;;;;;;;;8.38;55.21;91779.94;2072410;69;20548;-73
2023/01/15 10:30:29;;;;;;;;;;;;;;;8.59;55.51;91773.34;2071892;69;20104;-72
2023/01/15 10:32:57;;;;;;;;;;;;;;;8.75;53.85;91754.59;2068317;69;20079;-73
2023/01/15 10:35:30;;;;;;;;;;;;;;;9.26;52.96;91757.16;2070295;69;20052;-73
2023/01/15 10:37:55;;;;;;;;;;;;;;;9.63;48.24;91745.66;2069893;69;20052;-74
2023/01/15 10:40:35;;;;;;;;;;;;;;;9.60;50.15;91743.38;2071742;69;20052;-73
2023/01/15 10:43:09;;;;;;;;;;;;;;;9.62;49.99;91749.81;2071695;69;20475;-72
2023/01/15 10:45:53;;;;;;;;;;;;;;;9.78;49.46;91738.63;2068575;69;20045;-73
2023/01/15 10:48:28;;;;;;;;;;;;;;;10.60;49.59;91734.72;2068907;69;20117;-74
2023/01/15 10:50:54;;;;;;;;;;;;;;;10.87;49.28;91733.09;2071035;69;20080;-74
2023/01/15 10:53:30;;;;;;;;;;;;;;;11.53;47.95;91725.31;2062373;69;20053;-73
2023/01/15 10:56:15;;;;;;;;;;;;;;;11.58;44.16;91707.94;2069010;69;20108;-75
2023/01/15 10:58:48;;;;;;;;;;;;;;;11.71;43.64;91714.81;2070573;69;20040;-79
2023/01/15 11:01:18;;;;;;;;;;;;;;;12.05;43.75;91709.84;2070628;69;20098;-74
2023/01/15 11:03:44;;;;;;;;;;;;;;;12.39;44.07;91696.34;2068579;69;20179;-75
2023/01/15 11:06:15;;;;;;;;;;;;;;;12.56;43.77;91699.78;2069342;69;20128;-73
2023/01/15 11:08:51;;;;;;;;;;;;;;;13.55;40.76;91690.59;2070375;69;20064;-78
2023/01/15 11:19:35;;;;;;;;;;;;;;;14.28;39.98;91678.78;2071001;69;20131;-78
2023/01/15 11:19:35;;;;;;;;;;;;;;;12.73;41.23;91702.53;2070287;69;20068;-75
2023/01/15 11:22:07;;;;;;;;;;;;;;;14.32;40.62;91695.91;2070782;69;20231;-74
2023/01/15 11:24:35;;;;;;;;;;;;;;;15.22;40.25;91693.59;2070322;69;20057;-76
2023/01/15 11:27:00;;;;;;;;;;;;;;;15.14;37.33;91695.50;2070776;69;20048;-75
2023/01/15 11:29:36;;;;;;;;;;;;;;;15.45;37.14;91689.25;2072041;69;20051;-76
2023/01/15 11:32:02;;;;;;;;;;;;;;;15.27;36.59;91680.28;2070793;69;20040;-73
2023/01/15 11:34:28;;;;;;;;;;;;;;;14.05;38.61;91688.69;2071196;69;20480;-73
2023/01/15 11:37:03;;;;;;;;;;;;;;;13.89;38.83;91685.34;2069416;69;20588;-74
2023/01/15 11:39:30;;;;;;;;;;;;;;;14.32;39.27;91683.88;2070205;69;20140;-75
2023/01/15 11:53:12;;;;;;;;;;;;;;;13.22;39.82;91653.47;2071179;69;20076;-74
2023/01/15 11:55:38;;;;;;;;;;;;;;;12.68;39.98;91652.22;2071696;69;20122;-77
2023/01/15 11:58:07;;;;;;;;;;;;;;;12.51;38.91;91658.66;2068354;69;20462;-75
2023/01/15 12:00:34;;;;;;;;;;;;;;;12.91;39.40;91662.22;2072125;69;20048;-75
2023/01/15 12:03:26;;;;;;;;;;;;;;;12.88;39.29;91660.72;2071906;69;20056;-74
2023/01/15 12:05:56;;;;;;;;;;;;;;;12.19;40.04;91656.81;2070386;69;20054;-79
2023/01/15 12:08:35;;;;;;;;;;;;;;;12.33;39.41;91656.63;2071092;69;20511;-74
2023/01/15 12:11:10;;;;;;;;;;;;;;;12.47;39.12;91653.59;2071192;69;20048;-74
2023/01/15 12:13:42;;;;;;;;;;;;;;;11.38;40.59;91656.38;2071331;69;20072;-74
2023/01/15 12:16:08;;;;;;;;;;;;;;;10.78;41.76;91663.72;2072759;69;20060;-73
2023/01/15 12:18:55;;;;;;;;;;;;;;;11.69;42.27;91672.44;2072126;69;20060;-75
2023/01/15 12:21:33;;;;;;;;;;;;;;;11.79;41.78;91672.13;2072190;69;20051;-75
2023/01/15 12:23:58;;;;;;;;;;;;;;;11.61;42.07;91674.94;2072075;69;20480;-79
2023/01/15 12:26:26;;;;;;;;;;;;;;;11.38;42.65;91682.47;2071888;69;20114;-80
2023/01/15 12:29:10;;;;;;;;;;;;;;;11.25;41.98;91680.50;2072296;69;20053;-80
2023/01/15 12:31:43;;;;;;;;;;;;;;;10.76;43.64;91684.06;2071967;69;20480;-79
2023/01/15 12:34:18;;;;;;;;;;;;;;;10.49;43.08;91684.25;2072004;69;20040;-77
2023/01/15 12:36:46;;;;;;;;;;;;;;;10.51;43.85;91676.63;2071975;69;20029;-77
2023/01/15 12:39:11;;;;;;;;;;;;;;;11.06;43.39;91683.94;2068635;69;20141;-78
2023/01/15 12:45:03;;;;;;;;;;;;;;;10.70;43.02;91680.97;2072224;69;20074;-78
2023/01/15 12:47:47;;;;;;;;;;;;;;;10.72;43.83;91675.44;2072166;69;20145;-75
2023/01/15 12:50:28;;;;;;;;;;;;;;;10.60;45.43;91680.53;2072108;69;20143;-73
2023/01/15 12:53:02;;;;;;;;;;;;;;;10.66;45.16;91675.16;2072121;69;20087;-76
2023/01/15 12:55:29;;;;;;;;;;;;;;;10.32;45.68;91680.00;2071955;69;20202;-75
2023/01/15 12:58:03;;;;;;;;;;;;;;;10.48;45.16;91668.72;2071957;69;20041;-75
2023/01/15 13:00:33;;;;;;;;;;;;;;;10.17;46.49;91668.06;2071980;69;20517;-78
2023/01/15 13:02:59;;;;;;;;;;;;;;;9.57;45.91;91697.56;2071982;69;20045;-77
2023/01/15 13:05:27;;;;;;;;;;;;;;;9.62;46.82;91692.88;2071575;69;20060;-76
2023/01/15 13:08:28;;;;;;;;;;;;;;;9.03;48.13;91699.16;2071430;69;20048;-73
2023/01/15 13:10:54;;;;;;;;;;;;;;;8.97;48.45;91707.25;2053888;70;20182;-75
2023/01/15 13:13:23;;;;;;;;;;;;;;;8.64;46.36;91705.63;2054491;69;20133;-77
2023/01/15 13:16:07;;;;;;;;;;;;;;;9.03;46.75;91690.75;2054570;70;20490;-80
2023/01/15 13:18:35;;;;;;;;;;;;;;;9.40;46.90;91698.88;2054697;70;20089;-77
2023/01/15 13:21:05;;;;;;;;;;;;;;;9.53;48.39;91721.94;2053805;69;20065;-73
2023/01/15 13:23:49;;;;;;;;;;;;;;;9.28;47.68;91717.94;2053841;69;20084;-76
2023/01/15 13:26:21;;;;;;;;;;;;;;;9.39;48.25;91716.34;2053580;69;20066;-74
2023/01/15 13:28:53;;;;;;;;;;;;;;;8.87;50.77;91743.97;2053558;69;20108;-74
2023/01/15 13:31:18;;;;;;;;;;;;;;;8.90;50.13;91748.34;2053468;70;20497;-74
2023/01/15 13:33:50;;;;;;;;;;;;;;;9.07;50.34;91746.34;2053637;70;20131;-73
2023/01/15 13:36:32;;;;;;;;;;;;;;;9.15;52.65;91763.63;2054116;70;20489;-74
2023/01/15 13:39:00;;;;;;;;;;;;;;;9.10;51.73;91770.38;2055393;69;20108;-74
2023/01/15 13:44:31;;;;;;;;;;;;;;;8.83;55.47;91794.28;2059310;69;20060;-71
2023/01/15 13:47:17;;;;;;;;;;;;;;;7.95;56.76;91830.13;2072079;69;20406;-71
2023/01/15 13:49:49;;;;;;;;;;;;;;;7.81;57.35;91858.81;2071254;69;20047;-75
2023/01/15 13:52:23;;;;;;;;;;;;;;;8.19;56.25;91867.19;2071987;69;20071;-73
2023/01/15 13:54:48;;;;;;;;;;;;;;;8.48;59.47;91866.75;2071787;69;20047;-73
2023/01/15 13:57:20;;;;;;;;;;;;;;;8.50;60.50;91875.25;2072020;69;20096;-72
2023/01/15 13:59:46;;;;;;;;;;;;;;;8.46;63.02;91886.97;2071844;69;20080;-73